Time;durP1;ratioP1;P1;durP2;ratioP2;P2;SDS_P1;SDS_P2;PMS_P1;PMS_P2;Temp;Humidity;BMP_temperature;BMP_pressure;BME280_temperature;BME280_humidity;BME280_pressure;Samples;Min_cycle;Max_cycle;Signal;HPM_P1;HPM_P2
2022/03/10 00:03:29;;;;;;;25.38;14.77;;;;;;;0.47;93.08;100185.09;10494923;28;20039;-81
2022/03/10 00:08:29;;;;;;;21.55;13.95;;;;;;;0.19;93.48;100126.94;10494977;28;20051;-79
2022/03/10 00:13:31;;;;;;;22.20;13.63;;;;;;;0.47;93.66;100158.94;10494343;28;20044;-79
2022/03/10 00:18:32;;;;;;;22.80;13.98;;;;;;;0.52;93.53;100165.53;10494430;28;20052;-79
2022/03/10 00:23:33;;;;;;;21.83;14.23;;;;;;;0.42;93.43;100159.28;10494689;28;20388;-79
2022/03/10 00:28:34;;;;;;;22.23;13.10;;;;;;;0.22;93.46;100158.88;10495093;28;20492;-79
2022/03/10 00:33:35;;;;;;;21.65;12.90;;;;;;;0.59;93.63;100241.72;10493919;28;20040;-78
2022/03/10 00:38:36;;;;;;;23.70;14.15;;;;;;;0.04;93.75;100164.56;10499382;28;20046;-78
2022/03/10 00:43:37;;;;;;;22.70;14.05;;;;;;;-0.65;93.57;100044.78;10502152;28;20047;-78
2022/03/10 00:48:38;;;;;;;21.50;14.05;;;;;;;0.23;93.34;100186.66;10502167;28;20070;-78
2022/03/10 00:53:39;;;;;;;21.98;13.88;;;;;;;0.08;93.48;100160.78;10500644;28;20419;-79
2022/03/10 00:58:40;;;;;;;20.73;12.48;;;;;;;0.54;93.55;100252.53;10501202;28;20106;-78
2022/03/10 01:03:41;;;;;;;20.05;13.18;;;;;;;0.55;93.26;100261.19;10499657;28;20063;-79
2022/03/10 01:08:42;;;;;;;22.80;12.85;;;;;;;0.41;93.59;100249.06;10499958;28;20478;-80
2022/03/10 01:13:43;;;;;;;20.35;11.57;;;;;;;0.10;93.34;100208.53;10500889;28;20052;-79
2022/03/10 01:18:44;;;;;;;17.55;10.82;;;;;;;-0.56;93.28;100088.53;10500438;28;20048;-79
2022/03/10 01:23:44;;;;;;;19.13;11.32;;;;;;;0.56;93.96;100249.78;10500265;28;20056;-78
2022/03/10 01:28:45;;;;;;;16.40;11.25;;;;;;;0.48;93.52;100234.66;10499223;28;20087;-79
2022/03/10 01:33:46;;;;;;;18.60;11.00;;;;;;;0.53;94.23;100231.69;10498588;28;20072;-79
2022/03/10 01:38:47;;;;;;;19.42;11.38;;;;;;;0.54;93.37;100229.00;10499440;28;20043;-79
2022/03/10 01:43:56;;;;;;;15.75;10.43;;;;;;;0.58;94.54;100229.63;10500105;28;20522;-79
2022/03/10 01:48:58;;;;;;;18.42;11.23;;;;;;;0.49;93.97;100225.03;10498161;28;20048;-79
2022/03/10 01:53:58;;;;;;;17.05;10.95;;;;;;;0.35;94.13;100192.81;10498686;28;20033;-79
2022/03/10 01:59:03;;;;;;;17.65;11.05;;;;;;;0.32;94.63;100171.31;10497996;28;20127;-79
2022/03/10 02:04:03;;;;;;;;;;;;;;;0.66;94.07;100216.84;10499380;28;20051;-79
2022/03/10 02:19:44;;;;;;;14.57;8.88;;;;;;;0.39;93.09;100220.44;10497904;28;20066;-79
2022/03/10 02:24:45;;;;;;;16.13;9.48;;;;;;;-0.13;92.96;100136.97;10497848;28;20064;-79
2022/03/10 02:29:49;;;;;;;12.25;8.02;;;;;;;-0.03;93.70;100172.81;10498047;28;20044;-79
2022/03/10 02:34:50;;;;;;;14.27;8.60;;;;;;;0.33;93.00;100210.41;10497761;28;20036;-79
2022/03/10 02:39:51;;;;;;;13.13;8.07;;;;;;;0.30;93.31;100244.59;10494046;28;20043;-79
2022/03/10 02:44:51;;;;;;;12.05;7.95;;;;;;;0.16;93.44;100208.13;10468247;28;20053;-78
2022/03/10 02:49:53;;;;;;;12.00;8.00;;;;;;;-0.16;93.35;100174.56;10464835;28;20044;-78
2022/03/10 02:54:53;;;;;;;16.00;8.60;;;;;;;0.30;93.02;100244.59;10456147;28;20137;-79
2022/03/10 02:59:54;;;;;;;12.18;7.90;;;;;;;-0.85;92.91;100061.75;10453618;28;20467;-78
2022/03/10 03:04:55;;;;;;;13.20;8.05;;;;;;;-0.16;93.59;100171.94;10455535;28;20135;-78
2022/03/10 03:09:56;;;;;;;10.77;7.57;;;;;;;-0.83;92.40;100059.91;10454533;28;20527;-77
2022/03/10 03:14:57;;;;;;;13.45;8.35;;;;;;;0.01;92.01;100188.28;10454528;28;20106;-77
2022/03/10 03:19:58;;;;;;;12.57;8.38;;;;;;;0.09;92.42;100228.59;10488100;28;20135;-78
2022/03/10 03:24:59;;;;;;;11.57;7.60;;;;;;;-0.73;92.37;100110.50;10494020;28;20045;-78
2022/03/10 03:29:59;;;;;;;13.90;7.95;;;;;;;-0.27;92.51;100188.34;10489774;28;20079;-78
2022/03/10 03:35:00;;;;;;;13.73;9.10;;;;;;;-0.79;92.74;100116.13;10485707;28;20051;-80
2022/03/10 03:40:01;;;;;;;15.13;9.68;;;;;;;0.29;92.93;100255.97;10474449;28;20076;-78
2022/03/10 03:45:03;;;;;;;13.75;8.95;;;;;;;-0.02;92.54;100190.13;10481456;28;20545;-77
2022/03/10 03:50:05;;;;;;;17.52;9.65;;;;;;;-0.11;92.23;100192.53;10463676;28;20093;-77
2022/03/10 03:55:06;;;;;;;13.75;8.20;;;;;;;-1.10;92.78;100013.03;10468551;28;20129;-80
2022/03/10 04:00:10;;;;;;;14.98;9.35;;;;;;;0.43;91.71;100262.88;10465213;28;20570;-82
2022/03/10 04:05:11;;;;;;;15.52;10.35;;;;;;;-0.16;92.44;100153.69;10453096;28;20098;-81
2022/03/10 04:10:12;;;;;;;15.85;9.98;;;;;;;-0.07;92.37;100142.59;10455143;28;20489;-76
2022/03/10 04:15:13;;;;;;;15.05;10.27;;;;;;;-0.04;92.52;100126.72;10461552;28;20033;-82
2022/03/10 04:20:14;;;;;;;19.58;11.43;;;;;;;0.67;92.31;100239.44;10461899;28;20056;-78
2022/03/10 04:25:15;;;;;;;14.98;9.70;;;;;;;-0.34;91.85;100063.56;10461083;28;20041;-79
2022/03/10 04:30:17;;;;;;;13.90;9.15;;;;;;;-0.17;91.57;100096.38;10461420;28;20512;-77
2022/03/10 04:35:19;;;;;;;12.00;8.68;;;;;;;0.86;91.99;100283.41;10460156;28;20152;-83
2022/03/10 04:40:22;;;;;;;15.00;9.45;;;;;;;0.98;92.14;100284.34;10461046;28;20044;-79
2022/03/10 04:45:23;;;;;;;10.68;7.38;;;;;;;0.66;91.15;100214.25;10458311;28;20146;-79
2022/03/10 04:50:24;;;;;;;12.73;7.60;;;;;;;0.93;90.67;100268.13;10459587;28;20123;-78
2022/03/10 04:55:25;;;;;;;15.18;8.48;;;;;;;0.87;90.93;100270.25;10459990;28;20060;-79
2022/03/10 05:00:27;;;;;;;13.07;7.78;;;;;;;0.32;90.88;100171.31;10457823;28;20414;-80
2022/03/10 05:05:28;;;;;;;12.38;8.13;;;;;;;0.04;90.40;100141.88;10458026;28;20044;-80
2022/03/10 05:10:29;;;;;;;12.90;9.27;;;;;;;1.26;90.70;100310.22;10459142;28;20057;-79
2022/03/10 05:15:31;;;;;;;13.43;8.27;;;;;;;0.53;90.16;100202.94;10459131;28;20052;-79
2022/03/10 05:20:32;;;;;;;14.27;9.65;;;;;;;1.47;90.36;100317.50;10458439;28;20060;-80
2022/03/10 05:25:38;;;;;;;13.57;8.80;;;;;;;1.15;89.72;100255.22;10457969;28;20428;-80
2022/03/10 05:30:40;;;;;;;13.43;8.77;;;;;;;1.81;89.34;100337.66;10459304;28;20511;-81
2022/03/10 05:35:41;;;;;;;13.65;9.25;;;;;;;0.88;88.89;100174.31;10458918;28;20445;-81
2022/03/10 05:40:42;;;;;;;17.45;10.98;;;;;;;1.03;88.74;100199.38;10457625;28;20041;-82
2022/03/10 05:45:43;;;;;;;13.55;9.25;;;;;;;1.17;88.83;100235.00;10457812;28;20048;-81
2022/03/10 05:50:44;;;;;;;13.35;9.20;;;;;;;1.70;88.67;100311.41;10457208;28;20040;-82
2022/03/10 05:55:45;;;;;;;13.70;9.32;;;;;;;1.94;88.18;100344.63;10457567;28;20037;-82
2022/03/10 06:00:46;;;;;;;11.77;8.13;;;;;;;2.04;87.91;100377.06;10456747;28;20523;-82
2022/03/10 06:05:47;;;;;;;12.38;8.75;;;;;;;1.95;88.19;100365.47;10457700;28;20045;-82
2022/03/10 06:10:48;;;;;;;14.40;8.80;;;;;;;1.95;87.89;100370.72;10456863;28;20056;-83
2022/03/10 06:15:49;;;;;;;12.32;9.00;;;;;;;1.75;87.41;100322.41;10457147;28;20079;-82
2022/03/10 06:20:50;;;;;;;12.15;8.77;;;;;;;1.53;87.33;100256.84;10455995;28;20068;-82
2022/03/10 06:25:50;;;;;;;13.45;9.20;;;;;;;1.69;86.74;100301.91;10456331;28;20068;-81
2022/03/10 06:30:51;;;;;;;15.32;9.95;;;;;;;1.36;86.72;100209.16;10456041;28;20033;-80
2022/03/10 06:35:52;;;;;;;14.20;10.18;;;;;;;0.74;87.04;100114.31;10456719;28;20052;-82
2022/03/10 06:40:53;;;;;;;13.95;9.82;;;;;;;1.33;86.80;100191.06;10455800;28;20033;-81
2022/03/10 06:45:54;;;;;;;17.58;10.63;;;;;;;2.04;86.88;100291.44;10456239;28;20456;-80
2022/03/10 06:50:54;;;;;;;15.38;10.95;;;;;;;0.77;85.81;100067.03;10454803;28;20036;-80
2022/03/10 06:55:55;;;;;;;17.48;11.13;;;;;;;2.53;85.71;100336.69;10455077;28;20128;-80
2022/03/10 07:00:56;;;;;;;17.50;11.57;;;;;;;2.65;84.98;100346.25;10455012;28;20045;-80
2022/03/10 07:05:58;;;;;;;17.20;11.73;;;;;;;2.02;85.27;100204.25;10455000;28;20036;-79
2022/03/10 07:11:00;;;;;;;16.20;11.95;;;;;;;1.95;84.41;100191.75;10454505;28;20061;-79
2022/03/10 07:16:01;;;;;;;20.98;13.32;;;;;;;2.87;84.73;100336.72;10454327;28;20512;-81
2022/03/10 07:21:07;;;;;;;17.15;11.23;;;;;;;2.74;83.92;100310.63;10454268;28;20079;-79
2022/03/10 07:26:07;;;;;;;19.23;13.10;;;;;;;2.57;83.68;100280.44;10453946;28;20091;-81
2022/03/10 07:31:08;;;;;;;16.95;12.15;;;;;;;2.37;83.67;100220.84;10453796;28;20048;-80
2022/03/10 07:36:10;;;;;;;18.17;13.07;;;;;;;1.89;82.22;100129.34;10453860;28;20120;-80
2022/03/10 07:41:10;;;;;;;18.50;12.68;;;;;;;2.39;82.92;100177.81;10455250;28;20444;-80
2022/03/10 07:46:11;;;;;;;19.60;13.48;;;;;;;3.54;81.58;100325.34;10457684;28;20127;-78
2022/03/10 07:51:12;;;;;;;17.33;12.20;;;;;;;2.37;81.61;100134.34;10462555;28;20106;-78
2022/03/10 07:56:13;;;;;;;19.70;12.82;;;;;;;2.69;81.81;100171.97;10461756;28;20041;-79
2022/03/10 08:01:14;;;;;;;18.48;13.45;;;;;;;3.45;81.68;100320.84;10462385;28;20090;-78
2022/03/10 08:06:14;;;;;;;18.50;12.82;;;;;;;2.75;81.92;100228.34;10462492;28;20059;-78
2022/03/10 08:11:15;;;;;;;16.60;12.57;;;;;;;0.83;80.84;99943.69;10461252;28;20044;-78
2022/03/10 08:16:16;;;;;;;19.02;12.95;;;;;;;2.85;81.30;100279.16;10461471;28;20045;-78
2022/03/10 08:21:17;;;;;;;23.20;13.73;;;;;;;3.35;82.16;100299.72;10461994;28;20124;-78
2022/03/10 08:26:18;;;;;;;18.75;13.32;;;;;;;3.09;80.63;100249.31;10461388;28;20131;-78
2022/03/10 08:31:20;;;;;;;22.45;14.90;;;;;;;2.74;80.75;100135.69;10460095;28;20107;-78
2022/03/10 08:36:21;;;;;;;23.38;14.25;;;;;;;3.85;79.87;100263.25;10460288;28;20040;-78
2022/03/10 08:41:22;;;;;;;17.38;12.05;;;;;;;3.71;78.83;100222.38;10459951;28;20049;-78
2022/03/10 08:46:22;;;;;;;18.80;12.60;;;;;;;3.86;78.92;100215.00;10460674;28;20596;-78
2022/03/10 08:51:23;;;;;;;19.58;13.90;;;;;;;4.19;78.63;100281.47;10459390;28;20402;-78
2022/03/10 08:56:24;;;;;;;18.52;13.70;;;;;;;4.19;78.87;100197.34;10458651;28;20037;-78
2022/03/10 09:01:25;;;;;;;18.25;13.50;;;;;;;4.83;77.21;100218.09;10459703;28;20143;-78
2022/03/10 09:06:26;;;;;;;20.15;13.38;;;;;;;5.08;76.15;100261.53;10459324;28;20547;-78
2022/03/10 09:11:26;;;;;;;18.52;12.55;;;;;;;4.57;76.22;100244.84;10458253;28;20118;-79
2022/03/10 09:16:27;;;;;;;17.85;12.35;;;;;;;4.48;76.95;100224.59;10459221;28;20094;-78
2022/03/10 09:21:28;;;;;;;16.42;12.70;;;;;;;4.37;75.91;100123.91;10459403;28;20120;-79
2022/03/10 09:26:29;;;;;;;16.45;12.35;;;;;;;4.41;75.69;100178.75;10459541;28;20428;-80
2022/03/10 09:31:29;;;;;;;17.30;12.18;;;;;;;4.68;75.34;100248.38;10458433;28;20045;-79
2022/03/10 09:36:31;;;;;;;18.25;12.73;;;;;;;4.86;76.43;100254.69;10457890;28;20044;-79
2022/03/10 09:41:32;;;;;;;17.10;12.48;;;;;;;4.60;75.96;100211.38;10458711;28;20572;-79
2022/03/10 09:46:33;;;;;;;20.38;11.45;;;;;;;4.08;75.72;100149.16;10458103;28;20049;-78
2022/03/10 09:51:34;;;;;;;14.27;11.13;;;;;;;4.39;75.58;100253.50;10457328;28;20412;-79
2022/03/10 09:56:36;;;;;;;14.77;11.40;;;;;;;4.27;76.30;100239.59;10456868;28;20033;-79
2022/03/10 10:01:37;;;;;;;15.32;11.15;;;;;;;4.60;74.88;100229.78;10457798;28;20040;-79
2022/03/10 10:07:00;;;;;;;12.60;9.93;;;;;;;4.74;73.91;100229.44;10457174;28;20044;-79
2022/03/10 10:12:09;;;;;;;14.87;11.03;;;;;;;4.15;74.48;100153.88;10456941;28;20061;-79
2022/03/10 10:17:11;;;;;;;15.75;11.38;;;;;;;4.42;74.67;100211.97;10456965;28;20049;-79
2022/03/10 10:22:17;;;;;;;17.40;11.02;;;;;;;4.32;74.49;100242.69;10456636;28;20443;-79
2022/03/10 10:27:20;;;;;;;14.57;10.98;;;;;;;3.98;73.39;100229.75;10457011;28;20045;-79
2022/03/10 10:32:44;;;;;;;14.88;11.07;;;;;;;2.92;75.07;100065.16;10456381;28;20163;-79
2022/03/10 10:37:48;;;;;;;16.10;11.63;;;;;;;3.94;74.75;100228.31;10456490;28;20041;-79
2022/03/10 10:42:49;;;;;;;18.23;12.00;;;;;;;2.83;74.55;100008.22;10455308;28;20120;-79
2022/03/10 10:48:03;;;;;;;19.65;12.13;;;;;;;3.83;74.09;100210.00;10455345;28;20501;-78
2022/03/10 10:53:06;;;;;;;18.98;11.80;;;;;;;3.87;74.42;100216.66;10455410;28;20041;-78
2022/03/10 10:58:09;;;;;;;22.05;11.82;;;;;;;3.84;74.05;100183.59;10454746;28;20064;-78
2022/03/10 11:03:23;;;;;;;23.48;11.15;;;;;;;3.96;74.68;100205.38;10454688;28;20052;-79
2022/03/10 11:08:25;;;;;;;16.58;12.23;;;;;;;3.20;74.27;100150.38;10455305;28;20037;-78
2022/03/10 11:13:28;;;;;;;20.17;12.07;;;;;;;3.25;75.18;100197.22;10454726;28;20077;-79
2022/03/10 11:18:29;;;;;;;18.02;11.43;;;;;;;3.66;74.36;100225.38;10454144;28;20504;-78
2022/03/10 11:24:10;;;;;;;16.13;11.70;;;;;;;3.46;75.22;100155.25;10453730;28;20499;-78
2022/03/10 11:29:19;;;;;;;16.15;11.88;;;;;;;4.02;73.49;100202.22;10454466;28;20048;-78
2022/03/10 11:34:47;;;;;;;16.80;10.80;;;;;;;4.23;73.96;100217.16;10454383;28;20117;-78
2022/03/10 11:39:57;;;;;;;21.00;13.80;;;;;;;3.66;73.66;100185.97;10454344;28;20052;-79
2022/03/10 11:45:28;;;;;;;19.63;11.82;;;;;;;3.64;74.04;100189.66;10453645;28;20574;-79
2022/03/10 11:50:28;;;;;;;14.40;10.18;;;;;;;3.54;72.67;100215.88;10452638;28;20055;-78
2022/03/10 11:55:48;;;;;;;17.40;11.40;;;;;;;3.47;73.48;100242.75;10454026;28;20037;-78
2022/03/10 12:00:51;;;;;;;16.90;12.55;;;;;;;3.21;74.11;100224.69;10468724;28;20128;-79
2022/03/10 12:05:57;;;;;;;16.30;11.75;;;;;;;3.46;73.44;100257.66;10453236;28;20045;-78
2022/03/10 12:11:00;;;;;;;15.95;11.93;;;;;;;3.05;73.73;100193.59;10453237;28;20092;-79
2022/03/10 12:16:04;;;;;;;16.40;12.25;;;;;;;3.01;72.37;100221.03;10453699;28;20523;-78
2022/03/10 12:21:31;;;;;;;15.87;9.90;;;;;;;3.38;72.04;100254.81;10453957;28;20080;-79
2022/03/10 12:26:36;;;;;;;15.00;9.68;;;;;;;3.30;71.64;100249.38;10450723;28;20049;-78
2022/03/10 12:31:39;;;;;;;13.70;10.55;;;;;;;3.54;71.08;100260.53;10455913;28;20041;-80
2022/03/10 12:36:49;;;;;;;11.02;8.48;;;;;;;3.28;70.52;100209.28;10460148;28;20043;-79
2022/03/10 12:41:54;;;;;;;14.95;9.57;;;;;;;3.23;70.19;100245.56;10460672;28;20033;-77
2022/03/10 12:46:56;;;;;;;13.10;8.90;;;;;;;3.02;69.83;100206.97;10460966;28;20064;-79
2022/03/10 12:51:57;;;;;;;11.45;8.05;;;;;;;1.97;70.16;100056.22;10459568;28;20071;-78
2022/03/10 12:57:00;;;;;;;12.05;8.82;;;;;;;3.05;70.47;100214.59;10459812;28;20123;-80
2022/03/10 13:02:26;;;;;;;20.58;9.15;;;;;;;2.26;70.74;100091.44;10459889;28;20500;-79
2022/03/10 13:07:31;;;;;;;19.83;10.00;;;;;;;3.37;71.19;100240.03;10497576;28;20048;-79
2022/03/10 13:12:40;;;;;;;13.80;9.27;;;;;;;3.43;71.23;100229.03;10476693;28;20064;-79
2022/03/10 13:17:42;;;;;;;20.58;11.48;;;;;;;2.26;71.58;100036.41;10459777;28;20479;-79
2022/03/10 13:23:05;;;;;;;17.30;10.40;;;;;;;3.52;71.17;100209.91;10474351;28;20037;-79
2022/03/10 13:28:14;;;;;;;13.02;8.70;;;;;;;3.33;71.55;100186.94;10458032;28;20056;-80
2022/03/10 13:33:17;;;;;;;12.38;9.00;;;;;;;3.30;70.23;100202.13;10457842;28;20037;-79
2022/03/10 13:38:21;;;;;;;16.83;10.00;;;;;;;2.81;70.89;100145.69;10458239;28;20048;-78
2022/03/10 13:43:24;;;;;;;15.38;9.13;;;;;;;3.25;71.51;100204.28;10457969;28;20174;-78
2022/03/10 13:48:25;;;;;;;14.52;7.75;;;;;;;3.37;70.85;100214.59;10458086;28;20048;-79
2022/03/10 13:53:27;;;;;;;12.32;8.73;;;;;;;3.42;70.32;100215.06;10457941;28;20382;-79
2022/03/10 13:58:28;;;;;;;13.07;8.18;;;;;;;3.41;70.15;100212.56;10467547;28;20033;-79
2022/03/10 14:03:29;;;;;;;13.10;8.48;;;;;;;2.44;70.81;100057.69;10478499;28;20070;-78
2022/03/10 14:08:31;;;;;;;11.73;8.23;;;;;;;3.41;70.79;100226.53;10467717;28;20098;-80
2022/03/10 14:13:34;;;;;;;11.13;8.25;;;;;;;3.34;70.08;100219.28;10470818;28;20048;-78
2022/03/10 14:18:35;;;;;;;10.88;8.00;;;;;;;3.32;69.89;100221.19;10473707;28;20412;-77
2022/03/10 14:23:37;;;;;;;21.48;10.02;;;;;;;3.30;70.16;100202.13;10475078;28;20041;-77
2022/03/10 14:28:40;;;;;;;11.80;8.35;;;;;;;3.43;70.28;100236.91;10463938;28;20048;-78
2022/03/10 14:33:42;;;;;;;13.70;8.82;;;;;;;2.46;70.41;100099.53;10477199;28;20057;-79
2022/03/10 14:38:43;;;;;;;12.68;8.57;;;;;;;3.31;70.39;100248.41;10482896;28;20043;-79
2022/03/10 14:43:44;;;;;;;21.27;9.75;;;;;;;2.69;70.82;100182.47;10480441;28;20051;-79
2022/03/10 14:48:45;;;;;;;16.25;9.40;;;;;;;2.91;71.20;100225.38;10483081;28;20063;-78
2022/03/10 14:53:48;;;;;;;15.20;9.70;;;;;;;2.87;71.24;100237.91;10480386;28;20048;-79
2022/03/10 14:58:49;;;;;;;18.33;10.52;;;;;;;2.31;71.73;100167.13;10467567;28;20144;-79
2022/03/10 15:03:50;;;;;;;21.50;11.32;;;;;;;1.77;72.13;100079.56;10477399;28;20052;-78
2022/03/10 15:08:53;;;;;;;22.65;15.00;;;;;;;3.02;72.50;100276.97;10472639;28;20063;-78
2022/03/10 15:13:54;;;;;;;49.72;32.88;;;;;;;1.49;71.99;100022.41;10470682;28;20095;-79
2022/03/10 15:18:55;;;;;;;23.27;12.23;;;;;;;2.97;72.08;100282.59;10480832;28;20448;-79
2022/03/10 15:23:58;;;;;;;17.02;11.27;;;;;;;2.68;73.57;100293.56;10482883;28;20119;-78
2022/03/10 15:28:59;;;;;;;20.27;11.75;;;;;;;1.69;73.79;100154.41;10478278;28;20089;-78
2022/03/10 15:34:00;;;;;;;17.92;10.55;;;;;;;1.63;75.03;100168.81;10480670;28;20094;-79
2022/03/10 15:39:01;;;;;;;13.77;10.18;;;;;;;2.31;76.24;100311.28;10467641;28;20044;-79
2022/03/10 15:44:03;;;;;;;21.83;10.48;;;;;;;1.54;77.34;100206.97;10466886;28;20131;-79
2022/03/10 15:49:05;;;;;;;16.02;10.65;;;;;;;1.66;78.43;100249.75;10463936;28;20037;-79
2022/03/10 15:54:06;;;;;;;28.25;17.85;;;;;;;1.68;79.18;100255.72;10474929;28;20509;-78
2022/03/10 15:59:08;;;;;;;20.00;13.23;;;;;;;2.10;79.10;100311.09;10470265;28;20044;-78
2022/03/10 16:04:11;;;;;;;21.27;13.18;;;;;;;1.99;79.18;100296.19;10482416;28;20053;-78
2022/03/10 16:09:12;;;;;;;31.10;19.40;;;;;;;1.30;80.02;100170.34;10472279;28;20048;-79
2022/03/10 16:14:14;;;;;;;24.23;14.75;;;;;;;2.24;80.60;100304.81;10468452;28;20056;-79
2022/03/10 16:19:15;;;;;;;23.38;13.82;;;;;;;1.36;81.12;100164.66;10473926;28;20041;-78
2022/03/10 16:24:16;;;;;;;18.63;12.05;;;;;;;1.62;80.76;100205.59;10478058;28;20408;-80
2022/03/10 16:29:20;;;;;;;19.05;13.40;;;;;;;1.11;81.28;100133.41;10479476;28;20048;-79
2022/03/10 16:34:20;;;;;;;15.87;11.73;;;;;;;2.15;81.59;100313.38;10470837;28;20053;-79
2022/03/10 16:39:22;;;;;;;16.85;12.55;;;;;;;1.36;81.76;100185.59;10467462;28;20433;-79
2022/03/10 16:44:23;;;;;;;15.85;11.30;;;;;;;0.90;81.50;100109.66;10474993;28;20052;-79
2022/03/10 16:49:24;;;;;;;20.00;12.27;;;;;;;2.21;81.17;100331.25;10473821;28;20057;-79
2022/03/10 16:54:25;;;;;;;14.82;11.55;;;;;;;2.29;81.94;100327.13;10477322;28;20044;-79
2022/03/10 16:59:26;;;;;;;26.17;17.40;;;;;;;2.37;82.19;100330.97;10472432;28;20063;-79
2022/03/10 17:04:27;;;;;;;29.63;20.25;;;;;;;2.46;82.20;100327.66;10477470;28;20127;-80
2022/03/10 17:09:28;;;;;;;98.35;64.97;;;;;;;2.48;82.22;100312.59;10467576;28;20152;-80
2022/03/10 17:14:29;;;;;;;50.85;35.80;;;;;;;1.99;82.20;100222.81;10474770;28;20055;-80
2022/03/10 17:19:31;;;;;;;23.10;15.63;;;;;;;2.01;82.82;100243.69;10472073;28;20442;-80
2022/03/10 17:24:32;;;;;;;19.65;13.88;;;;;;;2.36;82.78;100303.88;10478402;28;20439;-79
2022/03/10 17:29:34;;;;;;;20.83;13.73;;;;;;;2.48;83.21;100323.09;10475083;28;20147;-79
2022/03/10 17:34:35;;;;;;;19.52;13.40;;;;;;;1.37;83.06;100127.06;10472961;28;20518;-79
2022/03/10 17:39:35;;;;;;;15.90;12.55;;;;;;;1.83;82.79;100238.03;10474079;28;20127;-79
2022/03/10 17:44:36;;;;;;;16.63;13.02;;;;;;;2.20;83.32;100272.75;10469660;28;20175;-80
2022/03/10 17:49:38;;;;;;;22.60;12.93;;;;;;;2.15;83.09;100277.50;10478712;28;20036;-78
2022/03/10 17:54:39;;;;;;;20.83;14.77;;;;;;;2.35;83.61;100304.03;10474357;28;20047;-79
2022/03/10 17:59:39;;;;;;;113.43;55.75;;;;;;;2.45;83.81;100318.09;10474315;28;20045;-80
2022/03/10 18:04:40;;;;;;;22.45;15.57;;;;;;;2.39;84.10;100311.50;10476799;28;20536;-79
2022/03/10 18:09:41;;;;;;;22.48;14.77;;;;;;;1.76;83.59;100210.59;10473099;28;20049;-82
2022/03/10 18:14:42;;;;;;;20.02;14.65;;;;;;;2.23;83.86;100327.56;10493686;28;20048;-79
2022/03/10 18:19:43;;;;;;;20.98;14.43;;;;;;;1.97;84.01;100269.25;10480229;28;20047;-79
2022/03/10 18:24:44;;;;;;;59.53;33.28;;;;;;;2.38;84.35;100348.34;10466124;28;20045;-79
2022/03/10 18:29:45;;;;;;;20.75;14.63;;;;;;;2.09;84.03;100288.47;10482096;28;20044;-79
2022/03/10 18:34:45;;;;;;;19.90;14.43;;;;;;;2.28;84.09;100307.09;10478472;28;20052;-80
2022/03/10 18:39:47;;;;;;;21.40;14.40;;;;;;;2.08;83.96;100268.47;10464377;28;20052;-80
2022/03/10 18:44:48;;;;;;;30.83;20.67;;;;;;;1.56;83.84;100197.22;10478642;28;20063;-80
2022/03/10 18:49:50;;;;;;;35.42;21.95;;;;;;;1.93;84.53;100280.91;10481704;28;20400;-79
2022/03/10 18:54:50;;;;;;;28.25;16.52;;;;;;;1.17;84.31;100168.75;10478679;28;20099;-79
2022/03/10 18:59:51;;;;;;;25.70;16.70;;;;;;;1.33;84.60;100212.00;10478240;28;20080;-80
2022/03/10 19:04:53;;;;;;;39.38;22.50;;;;;;;2.29;84.61;100360.34;10480652;28;20056;-79
2022/03/10 19:09:54;;;;;;;24.85;16.13;;;;;;;1.71;84.25;100258.09;10482200;28;20056;-79
2022/03/10 19:14:55;;;;;;;41.90;25.85;;;;;;;2.25;84.77;100343.19;10477679;28;20053;-79
2022/03/10 19:19:56;;;;;;;49.03;28.05;;;;;;;1.54;84.45;100258.50;10479017;28;20043;-79
2022/03/10 19:24:58;;;;;;;117.32;50.15;;;;;;;1.13;84.58;100163.72;10478392;28;20389;-80
2022/03/10 19:30:00;;;;;;;41.08;26.75;;;;;;;1.92;84.94;100291.53;10466209;28;20140;-80
2022/03/10 19:35:03;;;;;;;32.72;21.70;;;;;;;1.78;84.99;100301.22;10481465;28;20451;-79
2022/03/10 19:40:05;;;;;;;31.55;22.73;;;;;;;0.84;85.47;100134.47;10481038;28;20036;-79
2022/03/10 19:45:06;;;;;;;28.55;19.52;;;;;;;1.44;85.54;100220.88;10485192;28;20147;-79
2022/03/10 19:50:08;;;;;;;34.95;21.17;;;;;;;0.94;85.94;100183.50;10487452;28;20040;-80
2022/03/10 19:55:14;;;;;;;30.23;20.02;;;;;;;1.69;86.33;100315.00;10486431;28;20072;-80
2022/03/10 20:00:15;;;;;;;34.45;20.63;;;;;;;0.83;85.74;100179.03;10487056;28;20134;-80
2022/03/10 20:05:16;;;;;;;28.80;19.83;;;;;;;0.86;85.86;100171.78;10488107;28;20036;-79
2022/03/10 20:10:17;;;;;;;32.13;21.77;;;;;;;1.64;86.10;100292.69;10474051;28;20429;-80
2022/03/10 20:15:17;;;;;;;34.88;20.65;;;;;;;1.39;86.26;100277.94;10481833;28;20044;-80
2022/03/10 20:20:18;;;;;;;31.65;18.85;;;;;;;0.87;88.08;100206.66;10502180;28;20125;-79
2022/03/10 20:25:19;;;;;;;29.15;18.73;;;;;;;0.19;86.78;100090.34;10471509;28;20048;-80
2022/03/10 20:30:20;;;;;;;27.13;17.35;;;;;;;1.13;86.73;100255.31;10460423;28;20041;-80
2022/03/10 20:35:21;;;;;;;24.75;14.85;;;;;;;0.52;85.47;100151.63;10488382;28;20052;-80
2022/03/10 20:40:22;;;;;;;17.38;11.13;;;;;;;1.35;84.17;100279.97;10502174;28;20462;-79
2022/03/10 20:45:23;;;;;;;13.95;8.43;;;;;;;0.32;83.09;100147.78;10501916;28;20040;-79
2022/03/10 20:50:25;;;;;;;11.55;7.82;;;;;;;1.26;82.38;100315.47;10462449;28;20492;-79
2022/03/10 20:55:26;;;;;;;10.98;6.32;;;;;;;1.26;80.35;100315.47;10460088;28;20040;-80
2022/03/10 21:00:28;;;;;;;8.93;6.07;;;;;;;0.87;79.78;100257.19;10459156;28;20097;-80
2022/03/10 21:05:29;;;;;;;8.18;5.40;;;;;;;0.71;79.71;100227.81;10459794;28;20045;-79
2022/03/10 21:10:30;;;;;;;8.70;5.93;;;;;;;0.90;78.58;100262.19;10475452;28;20558;-80
2022/03/10 21:15:31;;;;;;;9.05;5.25;;;;;;;1.09;78.18;100289.66;10458831;28;20051;-79
2022/03/10 21:20:32;;;;;;;9.32;5.28;;;;;;;0.79;77.84;100272.56;10459638;28;20051;-79
2022/03/10 21:25:32;;;;;;;9.95;5.63;;;;;;;1.04;77.55;100303.03;10459045;28;20412;-79
2022/03/10 21:30:35;;;;;;;9.07;6.00;;;;;;;0.55;76.56;100229.81;10474631;28;20037;-80
2022/03/10 21:35:37;;;;;;;7.53;5.40;;;;;;;0.97;77.39;100295.75;10457981;28;20043;-80
2022/03/10 21:40:38;;;;;;;9.50;5.45;;;;;;;0.65;76.75;100247.38;10457328;28;20120;-79
2022/03/10 21:45:38;;;;;;;7.97;4.95;;;;;;;-0.17;76.25;100112.84;10466716;28;20139;-79
2022/03/10 21:50:39;;;;;;;8.93;5.72;;;;;;;0.05;77.30;100163.59;10457675;28;20044;-78
2022/03/10 21:55:41;;;;;;;11.38;5.80;;;;;;;0.78;77.00;100276.13;10458150;28;20041;-79
2022/03/10 22:00:42;;;;;;;8.48;4.72;;;;;;;-0.67;76.55;100046.66;10457909;28;20404;-79
2022/03/10 22:05:42;;;;;;;7.13;4.90;;;;;;;0.60;76.49;100288.69;10456897;28;20183;-79
2022/03/10 22:10:43;;;;;;;8.48;5.20;;;;;;;0.74;76.99;100324.31;10456833;28;20061;-80
2022/03/10 22:15:44;;;;;;;6.70;4.78;;;;;;;0.28;77.39;100245.63;10456695;28;20627;-79
2022/03/10 22:20:45;;;;;;;9.25;5.93;;;;;;;-0.21;77.00;100179.25;10457245;28;20049;-80
2022/03/10 22:25:46;;;;;;;10.18;5.70;;;;;;;0.73;77.31;100314.00;10456408;28;20041;-79
2022/03/10 22:30:47;;;;;;;7.72;4.72;;;;;;;0.17;76.39;100209.78;10456857;28;20094;-79
2022/03/10 22:35:48;;;;;;;8.32;5.45;;;;;;;0.63;76.87;100303.34;10456697;28;20072;-79
2022/03/10 22:40:49;;;;;;;8.88;5.63;;;;;;;-0.55;77.01;100118.88;10455982;28;20068;-79
2022/03/10 22:45:50;;;;;;;12.25;6.88;;;;;;;0.37;76.77;100250.22;10455233;28;20090;-79
2022/03/10 22:56:09;;;;;;;10.48;6.07;;;;;;;-0.66;76.98;100074.41;10454832;28;20115;-79
2022/03/10 23:01:10;;;;;;;7.00;4.70;;;;;;;0.51;76.11;100294.56;10455373;28;20087;-78
2022/03/10 23:11:30;;;;;;;9.95;6.65;;;;;;;-1.12;75.82;100079.22;10454990;28;20064;-80
2022/03/10 23:16:31;;;;;;;13.73;7.60;;;;;;;0.27;75.37;100307.50;10453486;28;20420;-79
2022/03/10 23:21:32;;;;;;;9.50;5.97;;;;;;;-0.24;74.81;100226.44;10454662;28;20064;-79